Time;durP1;ratioP1;P1;durP2;ratioP2;P2;SDS_P1;SDS_P2;PMS_P1;PMS_P2;Temp;Humidity;BMP_temperature;BMP_pressure;BME280_temperature;BME280_humidity;BME280_pressure;Samples;Min_cycle;Max_cycle;Signal;HPM_P1;HPM_P2
2022/06/06 00:02:06;;;;;;;40.58;18.20;;;;;;;17.76;100.00;100892.88;5041337;28;20053;-75
2022/06/06 00:04:34;;;;;;;83.80;41.17;;;;;;;17.77;100.00;100902.88;5042828;28;20501;-74
2022/06/06 00:07:01;;;;;;;71.97;33.40;;;;;;;17.71;100.00;100901.84;5039103;28;20460;-74
2022/06/06 00:09:28;;;;;;;45.78;18.67;;;;;;;17.66;100.00;100915.59;5047474;28;20053;-76
2022/06/06 00:11:57;;;;;;;44.58;22.10;;;;;;;17.63;100.00;100919.25;5045324;28;20111;-74
2022/06/06 00:14:24;;;;;;;100.55;50.33;;;;;;;17.36;100.00;100927.13;5046457;28;20061;-76
2022/06/06 00:16:51;;;;;;;85.03;40.88;;;;;;;17.35;100.00;100933.97;5039416;28;20347;-73
2022/06/06 00:19:17;;;;;;;96.22;46.67;;;;;;;17.26;100.00;100917.78;5039703;28;20048;-75
2022/06/06 00:21:44;;;;;;;64.18;28.85;;;;;;;17.17;100.00;100926.00;5042892;28;20056;-75
2022/06/06 00:24:11;;;;;;;90.68;39.75;;;;;;;17.05;100.00;100923.13;5045420;28;20698;-74
2022/06/06 00:26:38;;;;;;;70.55;27.23;;;;;;;17.10;100.00;100923.38;5040229;28;20060;-75
2022/06/06 00:29:06;;;;;;;46.50;18.88;;;;;;;17.02;100.00;100924.00;5040749;28;20148;-75
2022/06/06 00:37:09;;;;;;;60.65;26.67;;;;;;;16.92;100.00;100925.81;5037432;28;20051;-73
2022/06/06 00:39:35;;;;;;;59.45;24.60;;;;;;;16.83;100.00;100922.03;5044257;28;20060;-75
2022/06/06 00:42:13;;;;;;;78.63;35.53;;;;;;;16.73;100.00;100935.03;5039897;28;20048;-75
2022/06/06 00:44:41;;;;;;;54.38;22.77;;;;;;;16.80;100.00;100934.88;5046726;28;20055;-74
2022/06/06 00:47:17;;;;;;;92.72;37.55;;;;;;;16.80;100.00;100946.06;5039673;28;20152;-75
2022/06/06 00:49:53;;;;;;;64.07;25.67;;;;;;;16.83;100.00;100941.59;5046317;28;20063;-74
2022/06/06 00:52:26;;;;;;;69.13;27.27;;;;;;;16.74;100.00;100936.59;5041874;28;20063;-74
2022/06/06 00:54:56;;;;;;;78.18;34.85;;;;;;;16.74;100.00;100938.63;5038480;28;20126;-75
2022/06/06 00:57:28;;;;;;;80.07;34.40;;;;;;;16.66;100.00;100945.59;5043132;28;20168;-76
2022/06/06 00:59:55;;;;;;;87.70;33.75;;;;;;;16.71;100.00;100925.53;5039802;28;20844;-76
2022/06/06 01:02:22;;;;;;;89.53;39.58;;;;;;;16.72;100.00;100921.50;5037584;28;20096;-74
2022/06/06 01:04:50;;;;;;;135.75;62.58;;;;;;;16.82;100.00;100929.66;5043893;28;20248;-75
2022/06/06 01:07:17;;;;;;;68.68;32.03;;;;;;;16.68;100.00;100931.97;5042762;28;20057;-75
2022/06/06 01:09:43;;;;;;;88.68;37.55;;;;;;;16.69;100.00;100928.75;5038352;28;20049;-79
2022/06/06 01:12:15;;;;;;;122.40;55.72;;;;;;;16.78;100.00;100928.16;5035577;28;20640;-74
2022/06/06 01:14:50;;;;;;;92.68;44.38;;;;;;;16.72;100.00;100941.88;5043508;28;20080;-74
2022/06/06 01:17:28;;;;;;;41.97;18.38;;;;;;;16.59;100.00;100938.16;5040021;28;20052;-77
2022/06/06 01:20:26;;;;;;;124.00;52.17;;;;;;;16.65;100.00;100933.63;5040135;28;20037;-74
2022/06/06 01:23:11;;;;;;;116.47;49.80;;;;;;;16.70;100.00;100935.09;5044437;28;20049;-76
2022/06/06 01:25:50;;;;;;;73.80;35.10;;;;;;;16.59;100.00;100940.16;5033611;28;20092;-75
2022/06/06 01:28:35;;;;;;;116.65;56.72;;;;;;;16.63;100.00;100940.84;5045524;28;20063;-73
2022/06/06 01:31:07;;;;;;;86.80;40.13;;;;;;;16.59;100.00;100943.75;5037977;28;20051;-78
2022/06/06 01:33:55;;;;;;;103.68;44.88;;;;;;;16.69;100.00;100950.31;5039096;28;20049;-79
2022/06/06 01:36:25;;;;;;;103.45;46.47;;;;;;;16.68;100.00;100940.38;5043174;28;20138;-78
2022/06/06 01:38:53;;;;;;;95.93;46.22;;;;;;;16.67;100.00;100947.19;5047849;28;20057;-78
2022/06/06 01:41:35;;;;;;;94.05;42.53;;;;;;;16.67;100.00;100941.59;5040017;28;20541;-75
2022/06/06 01:44:19;;;;;;;96.40;46.85;;;;;;;16.65;100.00;100935.63;5043292;28;20524;-77
2022/06/06 01:46:47;;;;;;;97.65;43.45;;;;;;;16.63;100.00;100940.84;5046761;28;20056;-74
2022/06/06 01:49:15;;;;;;;72.85;32.80;;;;;;;16.53;100.00;100933.50;5039323;28;20103;-74
2022/06/06 01:51:42;;;;;;;90.13;41.20;;;;;;;16.60;100.00;100933.38;5034372;28;20055;-75
2022/06/06 01:54:13;;;;;;;98.30;46.25;;;;;;;16.60;100.00;100933.38;5038248;28;20041;-73
2022/06/06 01:56:40;;;;;;;96.45;41.58;;;;;;;16.56;100.00;100935.44;5042802;28;20125;-75
2022/06/06 01:59:07;;;;;;;86.90;41.92;;;;;;;16.57;100.00;100937.78;5038437;28;20073;-72
2022/06/06 02:01:33;;;;;;;54.08;24.13;;;;;;;16.51;100.00;100941.53;5042212;28;20099;-72
2022/06/06 02:04:00;;;;;;;67.97;30.45;;;;;;;16.42;100.00;100941.28;5043211;28;20040;-73
2022/06/06 02:06:26;;;;;;;68.45;31.00;;;;;;;16.49;100.00;100941.19;5037764;28;20080;-72
2022/06/06 02:08:53;;;;;;;66.15;25.55;;;;;;;16.48;100.00;100945.19;5040844;28;20077;-75
2022/06/06 02:11:20;;;;;;;64.32;26.23;;;;;;;16.47;100.00;100946.44;5044646;28;20104;-73
2022/06/06 02:13:47;;;;;;;63.05;29.23;;;;;;;16.48;100.00;100946.00;5044107;28;20044;-74
2022/06/06 02:16:14;;;;;;;96.43;44.40;;;;;;;16.53;100.00;100953.84;5036851;28;20060;-76
2022/06/06 02:18:41;;;;;;;41.20;18.23;;;;;;;16.43;100.00;100946.47;5039417;28;20079;-76
2022/06/06 02:21:08;;;;;;;75.40;33.95;;;;;;;16.40;100.00;100955.69;5041141;28;20128;-76
2022/06/06 02:23:34;;;;;;;32.67;13.70;;;;;;;16.37;100.00;100950.97;5033342;28;20111;-74
2022/06/06 02:26:01;;;;;;;85.70;39.85;;;;;;;16.38;100.00;100955.34;5036225;28;20044;-73
2022/06/06 02:28:36;;;;;;;52.78;22.55;;;;;;;16.33;100.00;100971.81;5039995;28;20065;-75
2022/06/06 02:31:04;;;;;;;29.95;13.63;;;;;;;16.30;100.00;100955.94;5044054;28;20065;-72
2022/06/06 02:33:32;;;;;;;44.72;20.77;;;;;;;16.20;100.00;100960.50;5038317;28;20517;-73
2022/06/06 02:36:00;;;;;;;50.58;21.88;;;;;;;16.19;100.00;100969.28;5039365;28;20079;-71
2022/06/06 02:38:28;;;;;;;52.05;21.38;;;;;;;16.09;100.00;100962.72;5028719;28;20049;-72
2022/06/06 02:40:55;;;;;;;50.92;19.90;;;;;;;16.08;100.00;100968.72;5044073;28;20969;-72
2022/06/06 02:43:21;;;;;;;62.78;27.90;;;;;;;16.03;100.00;100967.22;5045077;28;20517;-72
2022/06/06 02:45:50;;;;;;;47.40;21.75;;;;;;;16.05;100.00;100973.16;5038391;28;20079;-73
2022/06/06 02:48:16;;;;;;;76.85;36.00;;;;;;;16.01;100.00;100978.03;5047840;28;20441;-73
2022/06/06 02:50:43;;;;;;;63.58;29.42;;;;;;;16.03;100.00;100972.03;5039074;28;20123;-74
2022/06/06 02:53:10;;;;;;;67.25;24.27;;;;;;;16.01;100.00;100982.81;5045970;28;20500;-74
2022/06/06 02:55:37;;;;;;;52.70;20.20;;;;;;;15.99;100.00;100976.91;5045279;28;20128;-74
2022/06/06 02:58:04;;;;;;;71.93;30.40;;;;;;;15.98;100.00;100966.94;5042095;28;20061;-73
2022/06/06 03:00:32;;;;;;;49.25;20.00;;;;;;;15.98;100.00;100972.50;5042073;28;20064;-75
2022/06/06 03:02:59;;;;;;;74.97;32.22;;;;;;;16.01;100.00;100972.47;5047224;28;20085;-73
2022/06/06 03:05:37;;;;;;;81.97;36.63;;;;;;;16.04;100.00;100968.00;5048717;28;20135;-73
2022/06/06 03:08:22;;;;;;;43.95;16.58;;;;;;;16.01;100.00;100980.03;5049321;28;20416;-74
2022/06/06 03:11:02;;;;;;;71.20;30.02;;;;;;;16.00;100.00;100970.84;5050329;28;20037;-73
2022/06/06 03:13:44;;;;;;;50.17;20.73;;;;;;;15.97;100.00;100974.53;5049662;28;20053;-75
2022/06/06 03:22:08;;;;;;;61.15;27.00;;;;;;;16.03;100.00;100974.81;5042967;28;20692;-76
2022/06/06 03:24:44;;;;;;;74.15;33.05;;;;;;;16.10;100.00;100977.47;5038681;28;20672;-73
2022/06/06 03:27:16;;;;;;;60.38;24.50;;;;;;;16.10;100.00;100969.88;5048252;28;20462;-73
2022/06/06 03:30:08;;;;;;;65.25;25.48;;;;;;;16.15;100.00;100979.75;5049050;28;20135;-74
2022/06/06 03:33:02;;;;;;;65.85;27.98;;;;;;;16.07;100.00;100959.59;5032906;28;20344;-73
2022/06/06 03:35:50;;;;;;;23.38;9.10;;;;;;;16.13;100.00;100962.66;5036857;28;20045;-75
2022/06/06 03:38:49;;;;;;;75.45;28.88;;;;;;;16.23;100.00;100959.63;5036407;28;20514;-74
2022/06/06 03:41:18;;;;;;;62.90;25.80;;;;;;;16.18;100.00;100953.78;5040316;28;20045;-73
2022/06/06 03:43:56;;;;;;;72.70;29.75;;;;;;;16.22;100.00;100955.28;5042805;28;20049;-76
2022/06/06 03:46:37;;;;;;;30.98;12.60;;;;;;;16.12;100.00;100953.50;5042553;28;20525;-74
2022/06/06 03:49:17;;;;;;;58.03;22.77;;;;;;;16.22;100.00;100955.28;5038572;28;20041;-74
2022/06/06 03:52:06;;;;;;;62.38;25.95;;;;;;;16.24;100.00;100961.22;5044220;28;20045;-73
2022/06/06 03:54:48;;;;;;;71.93;29.85;;;;;;;16.34;100.00;100962.22;5046507;28;20171;-74
2022/06/06 03:57:18;;;;;;;24.73;9.32;;;;;;;16.28;100.00;100964.72;5040078;28;20047;-74
2022/06/06 03:59:48;;;;;;;63.08;26.50;;;;;;;16.34;100.00;100967.81;5044094;28;20474;-75
2022/06/06 04:02:19;;;;;;;29.50;12.93;;;;;;;16.32;100.00;100973.81;5042043;28;20053;-76
2022/06/06 04:04:46;;;;;;;65.95;27.67;;;;;;;16.40;100.00;100968.88;5033323;28;20135;-73
2022/06/06 04:07:13;;;;;;;70.50;29.90;;;;;;;16.37;100.00;100972.53;5045130;28;20110;-74
2022/06/06 04:09:40;;;;;;;60.50;26.25;;;;;;;16.39;100.00;100975.66;5040139;28;20412;-75
2022/06/06 04:12:34;;;;;;;65.55;30.42;;;;;;;16.38;100.00;100976.91;5044101;28;20124;-74
2022/06/06 04:15:20;;;;;;;60.25;24.88;;;;;;;16.40;100.00;100978.03;5038634;28;20461;-78
2022/06/06 04:18:14;;;;;;;42.80;19.45;;;;;;;16.41;100.00;100981.63;5041602;28;20103;-73
2022/06/06 04:20:53;;;;;;;38.95;14.02;;;;;;;16.39;100.00;100984.03;5041728;28;20132;-74
2022/06/06 04:23:57;;;;;;;37.88;14.63;;;;;;;16.39;100.00;100972.88;5041366;28;20055;-75
2022/06/06 04:27:01;;;;;;;40.42;18.60;;;;;;;16.40;100.00;100968.88;5045252;28;20045;-73
2022/06/06 04:30:17;;;;;;;29.02;11.30;;;;;;;16.41;100.00;100974.03;5050726;28;20049;-75
2022/06/06 04:32:56;;;;;;;20.65;9.35;;;;;;;16.45;100.00;100982.38;5044766;28;20053;-75
2022/06/06 04:36:07;;;;;;;19.48;8.80;;;;;;;16.43;100.00;100980.00;5047218;28;20057;-72
2022/06/06 04:38:58;;;;;;;33.80;12.15;;;;;;;16.52;100.00;100990.59;5041346;28;20111;-73
2022/06/06 04:41:52;;;;;;;41.35;19.45;;;;;;;16.55;100.00;100992.53;5042011;28;20065;-74
2022/06/06 04:44:29;;;;;;;13.95;5.90;;;;;;;16.48;100.00;100990.69;5041581;28;20063;-76
2022/06/06 04:47:01;;;;;;;19.52;7.57;;;;;;;16.51;100.00;100989.03;5044209;28;20086;-74
2022/06/06 04:49:30;;;;;;;25.38;9.43;;;;;;;16.48;100.00;100989.88;5032615;28;20108;-76
2022/06/06 04:51:58;;;;;;;28.13;12.18;;;;;;;16.54;100.00;100988.16;5042630;28;20033;-76
2022/06/06 04:54:26;;;;;;;24.70;12.25;;;;;;;16.60;100.00;100994.84;5039815;28;20056;-76
2022/06/06 04:56:54;;;;;;;31.88;13.55;;;;;;;16.58;100.00;100989.69;5042949;28;20041;-73
2022/06/06 04:59:24;;;;;;;16.67;7.78;;;;;;;16.56;100.00;100982.91;5036328;28;20053;-78
2022/06/06 05:01:54;;;;;;;30.40;12.60;;;;;;;16.70;100.00;100986.19;5042338;28;20445;-75
2022/06/06 05:04:21;;;;;;;32.10;15.63;;;;;;;16.73;100.00;100988.13;5044739;28;20545;-72
2022/06/06 05:07:02;;;;;;;13.73;5.35;;;;;;;16.65;100.00;100988.72;5040810;28;20077;-75
2022/06/06 05:09:47;;;;;;;14.75;4.75;;;;;;;16.65;100.00;100994.31;5048763;28;20077;-74
2022/06/06 05:12:20;;;;;;;21.80;5.83;;;;;;;16.64;100.00;101001.13;5055049;28;20049;-75
2022/06/06 05:15:07;;;;;;;16.85;6.60;;;;;;;16.63;100.00;101005.13;5040134;28;20065;-77
2022/06/06 05:17:43;;;;;;;20.40;7.90;;;;;;;16.60;100.00;100998.38;5042537;28;20073;-80
2022/06/06 05:20:21;;;;;;;20.60;10.02;;;;;;;16.67;100.00;101008.66;5038617;28;20076;-75
2022/06/06 05:23:06;;;;;;;14.10;7.10;;;;;;;16.61;100.00;101002.75;5044184;28;20422;-73
2022/06/06 05:25:51;;;;;;;13.80;4.65;;;;;;;16.64;100.00;101010.28;5042937;28;20862;-78
2022/06/06 05:28:59;;;;;;;13.48;6.40;;;;;;;16.56;100.00;101019.22;5044924;28;20053;-76
2022/06/06 05:32:00;;;;;;;12.88;5.88;;;;;;;16.61;100.00;101027.88;5047007;28;20067;-75
2022/06/06 05:34:34;;;;;;;17.42;6.95;;;;;;;16.51;100.00;101028.13;5034021;28;20118;-72
2022/06/06 05:37:28;;;;;;;23.30;9.10;;;;;;;16.44;100.00;101028.28;5045505;28;20103;-74
2022/06/06 05:40:20;;;;;;;18.73;6.82;;;;;;;16.59;100.00;101027.56;5046061;28;20067;-73
2022/06/06 05:43:07;;;;;;;22.95;8.63;;;;;;;16.68;100.00;101018.59;5043480;28;20128;-72
2022/06/06 05:45:58;;;;;;;24.80;8.57;;;;;;;16.72;100.00;101016.50;5042074;28;20620;-71
2022/06/06 05:48:46;;;;;;;12.77;4.32;;;;;;;16.61;100.00;101015.94;5035040;28;20053;-74
2022/06/06 05:51:32;;;;;;;21.85;8.45;;;;;;;16.67;100.00;101031.00;5041992;28;20078;-72
2022/06/06 05:54:13;;;;;;;15.82;5.50;;;;;;;16.55;100.00;101018.47;5037799;28;20059;-74
2022/06/06 05:56:55;;;;;;;21.55;8.25;;;;;;;16.67;100.00;101031.00;5037584;28;20060;-73
2022/06/06 05:59:41;;;;;;;15.95;5.45;;;;;;;16.72;100.00;101034.06;5045678;28;20056;-74
2022/06/06 06:02:17;;;;;;;17.00;5.65;;;;;;;16.71;100.00;101018.50;5042667;28;20110;-73
2022/06/06 06:04:49;;;;;;;;;;;;;;;16.69;100.00;101029.34;5029790;28;20319;-73
2022/06/06 06:07:34;;;;;;;29.33;8.82;;;;;;;16.79;100.00;101016.34;5036772;28;20614;-72
2022/06/06 06:10:20;;;;;;;19.37;7.97;;;;;;;16.76;100.00;101020.81;5039638;28;20535;-73
2022/06/06 06:13:02;;;;;;;21.38;7.75;;;;;;;16.74;100.00;101034.41;5040805;28;20137;-72
2022/06/06 06:15:31;;;;;;;20.73;8.93;;;;;;;16.84;100.00;101032.63;5034341;28;20088;-72
2022/06/06 06:18:01;;;;;;;12.65;4.20;;;;;;;16.74;100.00;101028.81;5037291;28;20426;-75
2022/06/06 06:20:53;;;;;;;11.02;4.35;;;;;;;16.77;100.00;101035.56;5033595;28;20045;-72
2022/06/06 06:23:25;;;;;;;15.05;5.05;;;;;;;16.82;100.00;101046.22;5035048;28;20143;-72
2022/06/06 06:25:53;;;;;;;10.40;4.35;;;;;;;17.06;100.00;101048.50;5044102;28;20068;-75
2022/06/06 06:28:20;;;;;;;7.68;2.70;;;;;;;17.13;100.00;101039.94;5033797;28;20049;-72
2022/06/06 06:31:22;;;;;;;18.85;6.28;;;;;;;17.10;100.00;101043.59;5043865;28;20586;-72
2022/06/06 06:34:18;;;;;;;16.38;5.72;;;;;;;17.16;100.00;101049.47;5032106;28;20069;-72
2022/06/06 06:37:09;;;;;;;13.73;5.37;;;;;;;17.38;100.00;101053.34;5044687;28;20156;-73
2022/06/06 06:39:44;;;;;;;4.63;2.28;;;;;;;17.34;100.00;101053.44;5034247;28;20137;-72
2022/06/06 06:42:35;;;;;;;8.52;3.50;;;;;;;17.47;100.00;101053.56;5039897;28;20514;-71
2022/06/06 06:45:09;;;;;;;10.07;4.13;;;;;;;17.45;100.00;101054.00;5041526;28;20146;-72
2022/06/06 06:47:36;;;;;;;10.40;4.75;;;;;;;17.50;100.00;101061.06;5033365;28;20057;-73
2022/06/06 06:50:22;;;;;;;15.07;6.40;;;;;;;17.64;100.00;101061.53;5039655;28;20390;-73
2022/06/06 06:52:51;;;;;;;;;;;;;;;17.70;100.00;101073.78;5040928;28;20053;-74
2022/06/06 06:55:36;;;;;;;9.73;3.53;;;;;;;17.66;100.00;101075.84;5043227;28;20019;-73
2022/06/06 06:58:15;;;;;;;13.25;6.20;;;;;;;17.95;100.00;101073.13;5037623;28;20077;-73
2022/06/06 07:00:48;;;;;;;13.10;4.47;;;;;;;17.89;100.00;101064.47;5041419;28;20523;-72
2022/06/06 07:09:25;;;;;;;11.70;4.57;;;;;;;17.66;100.00;101075.09;5038345;28;20451;-71
2022/06/06 07:12:16;;;;;;;16.30;6.15;;;;;;;17.92;100.00;101071.22;5054933;28;20460;-71
2022/06/06 07:15:04;;;;;;;13.45;5.60;;;;;;;17.92;100.00;101072.00;5036608;28;20064;-71
2022/06/06 07:17:34;;;;;;;6.28;2.60;;;;;;;18.07;100.00;101072.44;5041621;28;20130;-71
2022/06/06 07:20:08;;;;;;;13.60;5.55;;;;;;;18.24;100.00;101061.97;5025802;28;20140;-71
2022/06/06 07:22:59;;;;;;;8.02;2.88;;;;;;;18.30;100.00;101068.63;5027989;28;20133;-71
2022/06/06 07:25:27;;;;;;;12.38;3.38;;;;;;;18.51;100.00;101085.69;5035003;28;20122;-71
2022/06/06 07:27:54;;;;;;;6.22;2.90;;;;;;;18.24;97.92;101071.19;5036760;28;20053;-72
2022/06/06 07:30:21;;;;;;;7.63;2.38;;;;;;;18.30;97.12;101080.63;5042819;28;20144;-72
2022/06/06 07:33:00;;;;;;;7.38;2.92;;;;;;;18.29;95.45;101076.22;5037200;28;20145;-73
2022/06/06 07:35:42;;;;;;;9.55;3.67;;;;;;;18.43;97.75;101070.28;5036152;28;20502;-71
2022/06/06 07:38:33;;;;;;;7.22;3.08;;;;;;;18.49;97.74;101062.91;5035795;28;20059;-72
2022/06/06 07:41:18;;;;;;;11.73;4.78;;;;;;;18.52;98.40;101069.66;5031447;28;20053;-70
2022/06/06 07:43:54;;;;;;;4.38;1.92;;;;;;;18.43;94.83;101084.31;5038671;28;20084;-71
2022/06/06 07:46:38;;;;;;;8.82;2.63;;;;;;;18.32;93.95;101088.59;5044549;28;20087;-71
2022/06/06 07:49:14;;;;;;;9.90;3.87;;;;;;;18.28;92.27;101080.28;5036514;28;20045;-73
2022/06/06 07:51:56;;;;;;;10.93;4.28;;;;;;;18.30;90.57;101079.81;5037482;28;20514;-71
2022/06/06 07:54:29;;;;;;;8.35;3.35;;;;;;;18.47;91.76;101070.97;5044025;28;20804;-73
2022/06/06 07:57:09;;;;;;;6.28;2.42;;;;;;;18.49;91.44;101074.09;5041226;28;20123;-73
2022/06/06 07:59:54;;;;;;;7.35;2.95;;;;;;;18.52;89.41;101078.81;5034382;28;20084;-73
2022/06/06 08:02:53;;;;;;;10.88;4.22;;;;;;;18.66;86.65;101072.06;5034740;28;20049;-73
2022/06/06 08:05:38;;;;;;;6.07;2.50;;;;;;;18.68;86.83;101083.59;5027188;28;20695;-74
2022/06/06 08:08:24;;;;;;;3.60;2.15;;;;;;;18.77;85.81;101069.72;5033855;28;20084;-71
2022/06/06 08:10:50;;;;;;;7.25;2.95;;;;;;;18.67;85.24;101088.44;5041394;28;20485;-72
2022/06/06 08:13:32;;;;;;;5.97;2.38;;;;;;;18.69;84.55;101069.13;5052032;28;20067;-71
2022/06/06 08:16:20;;;;;;;6.47;2.72;;;;;;;18.84;85.08;101075.13;5035909;28;20057;-71
2022/06/06 08:19:14;;;;;;;7.22;3.08;;;;;;;19.01;82.52;101063.41;5037893;28;20048;-72
2022/06/06 08:21:43;;;;;;;6.05;1.58;;;;;;;18.98;81.73;101064.28;5038239;28;20059;-70
2022/06/06 08:24:21;;;;;;;9.20;2.80;;;;;;;18.77;83.03;101076.13;5041537;28;20053;-74
2022/06/06 08:27:12;;;;;;;6.07;2.63;;;;;;;18.80;80.67;101063.22;5032343;28;20501;-74
2022/06/06 08:29:42;;;;;;;9.15;2.70;;;;;;;18.84;81.17;101061.91;5040153;28;20045;-70
2022/06/06 08:32:10;;;;;;;7.78;3.08;;;;;;;18.94;79.14;101052.38;5040827;28;20136;-71
2022/06/06 08:34:38;;;;;;;4.13;2.25;;;;;;;19.00;75.59;101061.78;5043376;28;20136;-71
2022/06/06 08:37:07;;;;;;;7.88;2.80;;;;;;;19.31;76.66;101071.28;5038725;28;20053;-73
2022/06/06 08:39:46;;;;;;;5.80;1.33;;;;;;;19.22;70.89;101054.31;5048906;28;20128;-71
2022/06/06 08:42:17;;;;;;;7.32;2.00;;;;;;;19.31;70.71;101074.09;5036447;28;20049;-74
2022/06/06 08:45:19;;;;;;;7.03;2.70;;;;;;;19.64;69.02;101061.41;5039035;28;20053;-73
2022/06/06 08:48:12;;;;;;;3.88;1.77;;;;;;;19.67;67.15;101065.31;5041668;28;20107;-74
2022/06/06 08:51:01;;;;;;;5.97;2.30;;;;;;;19.94;68.89;101063.59;5040602;28;20048;-74
2022/06/06 08:53:56;;;;;;;7.95;2.65;;;;;;;19.84;66.25;101070.34;5047057;28;20072;-73
2022/06/06 08:56:29;;;;;;;7.25;2.20;;;;;;;19.40;65.85;101077.00;5038890;28;20076;-75
2022/06/06 08:59:25;;;;;;;11.23;1.58;;;;;;;19.77;67.48;101067.78;5038908;28;20553;-73
2022/06/06 09:02:29;;;;;;;2.17;1.08;;;;;;;19.95;66.15;101061.59;5038118;28;20059;-74
2022/06/06 09:05:22;;;;;;;1.17;0.82;;;;;;;19.67;63.18;101060.50;5045685;28;20041;-75
2022/06/06 09:08:03;;;;;;;1.20;1.02;;;;;;;19.86;63.59;101072.72;5040840;28;20874;-72
2022/06/06 09:11:03;;;;;;;7.03;2.45;;;;;;;19.79;62.65;101078.56;5037576;28;20441;-73
2022/06/06 09:13:30;;;;;;;1.92;1.15;;;;;;;19.89;62.46;101074.63;5036022;28;20048;-72
2022/06/06 09:16:12;;;;;;;4.30;2.20;;;;;;;19.58;62.56;101091.25;5041210;28;20053;-73
2022/06/06 09:19:15;;;;;;;4.78;1.77;;;;;;;20.00;62.29;101091.88;5039755;28;20049;-72
2022/06/06 09:21:57;;;;;;;3.58;1.67;;;;;;;20.15;60.83;101074.13;5036165;28;20079;-72
2022/06/06 09:24:58;;;;;;;3.33;1.95;;;;;;;20.23;60.17;101081.09;5039477;28;20049;-72
2022/06/06 09:28:29;;;;;;;4.35;1.77;;;;;;;20.14;62.51;101083.00;5042446;28;20544;-74
2022/06/06 09:31:17;;;;;;;3.78;1.48;;;;;;;19.66;63.77;101081.41;4974951;28;20118;-72
2022/06/06 09:34:22;;;;;;;3.95;2.13;;;;;;;19.72;64.29;101085.22;5041311;28;20045;-73
2022/06/06 09:37:07;;;;;;;1.77;1.27;;;;;;;19.50;64.67;101084.31;5038594;28;20076;-71
2022/06/06 09:39:47;;;;;;;1.30;0.80;;;;;;;19.53;64.43;101077.81;5043850;28;20091;-73
2022/06/06 09:43:00;;;;;;;5.80;1.65;;;;;;;19.54;64.62;101078.59;5039207;28;20069;-71
2022/06/06 09:46:06;;;;;;;6.63;2.00;;;;;;;19.95;63.24;101081.25;5034931;28;20049;-74
2022/06/06 09:48:55;;;;;;;7.97;1.67;;;;;;;19.90;63.33;101079.00;5031228;28;20080;-72
2022/06/06 09:51:37;;;;;;;2.70;1.60;;;;;;;19.72;63.99;101071.19;5036898;28;20049;-74
2022/06/06 10:00:14;;;;;;;3.17;1.20;;;;;;;19.77;66.10;101081.03;5036248;28;20144;-73
2022/06/06 10:02:52;;;;;;;4.07;1.70;;;;;;;19.90;65.29;101082.59;5041991;28;20127;-71
2022/06/06 10:05:31;;;;;;;5.00;1.50;;;;;;;19.77;65.00;101070.59;5029929;28;20045;-72
2022/06/06 10:08:35;;;;;;;4.47;1.23;;;;;;;19.76;66.70;101062.63;5027214;28;20055;-72
2022/06/06 10:11:31;;;;;;;5.00;1.60;;;;;;;19.98;65.64;101064.25;5033464;28;20105;-74
2022/06/06 10:14:22;;;;;;;1.88;0.75;;;;;;;20.03;63.34;101060.88;5030979;28;20057;-70
2022/06/06 10:17:10;;;;;;;4.05;1.65;;;;;;;20.35;64.37;101060.56;5033797;28;20053;-74
2022/06/06 10:19:50;;;;;;;1.58;0.80;;;;;;;20.31;61.66;101067.56;5036421;28;20045;-73
2022/06/06 10:22:16;;;;;;;1.25;0.63;;;;;;;20.21;58.65;101060.28;5040888;28;20083;-72
2022/06/06 10:24:42;;;;;;;0.55;0.50;;;;;;;20.56;59.44;101053.41;5036631;28;20111;-72
2022/06/06 10:27:24;;;;;;;0.95;0.85;;;;;;;20.56;58.28;101050.59;5038343;28;20140;-74
2022/06/06 10:30:11;;;;;;;3.90;1.58;;;;;;;20.85;57.33;101053.13;5041676;28;20045;-72
2022/06/06 10:33:03;;;;;;;3.63;1.40;;;;;;;20.64;54.79;101051.09;5039609;28;20055;-72
2022/06/06 10:35:32;;;;;;;3.35;1.42;;;;;;;20.76;54.52;101067.13;5040091;28;20084;-74
2022/06/06 10:38:24;;;;;;;2.15;1.02;;;;;;;20.91;55.21;101054.88;5031060;28;20700;-72
2022/06/06 10:41:26;;;;;;;8.65;1.42;;;;;;;21.22;52.90;101043.66;5027293;28;20053;-71
2022/06/06 10:44:20;;;;;;;1.33;0.80;;;;;;;21.25;55.83;101037.91;5011260;28;20061;-71
2022/06/06 10:47:16;;;;;;;1.17;0.75;;;;;;;21.15;55.62;101055.19;5035975;28;20415;-73
2022/06/06 10:50:08;;;;;;;1.23;1.00;;;;;;;21.50;54.65;101034.09;5035933;28;20514;-73
2022/06/06 10:52:53;;;;;;;1.27;0.77;;;;;;;21.04;52.66;101050.00;5043843;28;20120;-71
2022/06/06 10:55:43;;;;;;;1.83;1.02;;;;;;;21.18;51.89;101037.38;5038559;28;20124;-71
2022/06/06 10:58:29;;;;;;;3.00;0.85;;;;;;;21.18;52.89;101048.63;5038869;28;20053;-75
2022/06/06 11:01:41;;;;;;;2.20;0.63;;;;;;;20.95;52.13;101040.72;5039718;28;20045;-74
2022/06/06 11:04:38;;;;;;;2.10;1.10;;;;;;;21.39;54.10;101036.56;5044292;28;20064;-72
2022/06/06 11:07:46;;;;;;;5.63;1.25;;;;;;;21.20;52.83;101041.31;5038543;28;20411;-71
2022/06/06 11:10:27;;;;;;;8.65;1.67;;;;;;;21.44;51.77;101042.34;5034996;28;20421;-74
2022/06/06 11:13:24;;;;;;;2.95;1.52;;;;;;;21.32;50.85;101036.81;5039737;28;20052;-73
2022/06/06 11:16:18;;;;;;;0.93;0.70;;;;;;;21.19;52.02;101041.78;5037824;28;20061;-72
2022/06/06 11:19:26;;;;;;;6.47;1.60;;;;;;;21.10;54.15;101081.13;5037488;28;20513;-73
2022/06/06 11:22:13;;;;;;;2.97;1.30;;;;;;;21.01;56.72;101114.81;5038990;28;20052;-73
2022/06/06 11:25:06;;;;;;;1.17;0.68;;;;;;;19.82;56.32;101117.78;5037953;28;20053;-71
2022/06/06 11:27:58;;;;;;;0.30;0.30;;;;;;;19.07;62.07;101103.66;5033628;28;20048;-76
2022/06/06 11:30:44;;;;;;;2.22;0.80;;;;;;;18.99;67.72;101090.28;5037981;28;20827;-72
2022/06/06 11:33:23;;;;;;;5.85;1.27;;;;;;;19.00;71.16;101061.03;5038174;28;20045;-73
2022/06/06 11:36:17;;;;;;;3.83;1.30;;;;;;;18.72;75.96;101070.25;5033815;28;20049;-71
2022/06/06 11:38:52;;;;;;;3.28;1.27;;;;;;;18.71;77.73;101072.28;5039173;28;20647;-71
2022/06/06 11:41:33;;;;;;;4.13;1.02;;;;;;;18.14;79.68;101094.66;5042039;28;20570;-72
2022/06/06 11:44:10;;;;;;;4.30;0.95;;;;;;;17.96;83.01;101083.91;5040009;28;20110;-72
2022/06/06 11:46:55;;;;;;;1.58;1.02;;;;;;;17.98;85.03;101091.84;5030524;28;20149;-71
2022/06/06 11:49:44;;;;;;;1.80;0.70;;;;;;;17.61;93.18;101095.97;5032832;28;20143;-71
2022/06/06 11:52:50;;;;;;;2.60;1.20;;;;;;;17.37;100.00;101086.13;5042205;28;20076;-71
2022/06/06 11:55:54;;;;;;;4.07;1.27;;;;;;;17.23;100.00;101077.25;5037853;28;20049;-70
2022/06/06 11:58:20;;;;;;;4.10;1.27;;;;;;;17.09;100.00;101072.78;5043552;28;20083;-71
2022/06/06 12:01:21;;;;;;;5.43;1.20;;;;;;;17.22;100.00;101079.25;5034195;28;20049;-71
2022/06/06 12:04:28;;;;;;;4.82;1.60;;;;;;;17.30;100.00;101069.50;5029753;28;20123;-72
2022/06/06 12:07:15;;;;;;;3.92;1.70;;;;;;;17.83;100.00;101059.88;5022150;28;20081;-74
2022/06/06 12:10:07;;;;;;;2.08;0.93;;;;;;;18.17;100.00;101057.38;5041462;28;20056;-71
2022/06/06 12:12:58;;;;;;;7.82;1.58;;;;;;;18.52;99.09;101064.06;5043657;28;20046;-73
2022/06/06 12:15:52;;;;;;;2.70;1.65;;;;;;;19.19;97.07;101035.56;5039123;28;20128;-72
2022/06/06 12:18:33;;;;;;;2.88;0.68;;;;;;;19.53;90.00;101041.31;5045473;28;20088;-74
2022/06/06 12:21:05;;;;;;;7.93;1.83;;;;;;;19.61;83.43;101028.59;5037164;28;20102;-71
2022/06/06 12:23:50;;;;;;;10.15;2.00;;;;;;;20.06;82.51;101031.91;5044059;28;20045;-72
2022/06/06 12:26:41;;;;;;;3.10;1.40;;;;;;;20.06;76.68;101040.31;5039081;28;20179;-73
2022/06/06 12:29:29;;;;;;;3.55;1.33;;;;;;;19.98;76.19;101035.41;5039387;28;20151;-71
2022/06/06 12:32:09;;;;;;;2.15;1.30;;;;;;;20.07;75.63;101019.41;5042346;28;20049;-71
2022/06/06 12:34:53;;;;;;;4.90;1.65;;;;;;;21.15;77.64;101008.16;5041578;28;20045;-71
2022/06/06 12:37:31;;;;;;;5.00;1.13;;;;;;;21.69;66.80;101015.97;5044499;28;20045;-70